createdAt,value
2023-05-03T00:01:37.450Z,7.15
2023-05-03T00:04:04.051Z,6.30
2023-05-03T00:06:31.553Z,7.55
2023-05-03T00:08:58.011Z,6.13
2023-05-03T00:11:24.461Z,5.28
2023-05-03T00:13:50.949Z,8.60
2023-05-03T00:16:17.544Z,6.53
2023-05-03T00:18:43.959Z,5.38
2023-05-03T00:21:10.408Z,5.72
2023-05-03T00:23:36.900Z,6.32
2023-05-03T00:26:03.446Z,6.07
2023-05-03T00:28:30.004Z,6.63
2023-05-03T00:30:56.504Z,7.65
2023-05-03T00:33:22.959Z,6.45
2023-05-03T00:35:49.388Z,7.45
2023-05-03T00:38:15.903Z,6.47
2023-05-03T00:40:43.102Z,7.03
2023-05-03T00:43:13.316Z,5.25
2023-05-03T00:45:39.778Z,9.75
2023-05-03T00:48:06.366Z,6.20
2023-05-03T00:50:32.928Z,7.07
2023-05-03T00:52:59.690Z,5.82
2023-05-03T00:55:30.451Z,8.40
2023-05-03T00:57:57.586Z,8.27
2023-05-03T01:00:24.780Z,7.45
2023-05-03T01:02:51.884Z,10.57
2023-05-03T01:05:18.938Z,6.00
2023-05-03T01:07:55.385Z,7.63
2023-05-03T01:10:30.660Z,8.55
2023-05-03T01:13:22.004Z,7.95
2023-05-03T01:16:00.970Z,7.20
2023-05-03T01:18:34.475Z,8.45
2023-05-03T01:21:02.971Z,8.30
2023-05-03T01:23:40.303Z,9.25
2023-05-03T01:26:28.502Z,8.63
2023-05-03T01:28:55.800Z,7.88
2023-05-03T01:31:29.851Z,7.80
2023-05-03T01:34:33.410Z,5.57
2023-05-03T01:37:03.711Z,6.70
2023-05-03T01:39:43.649Z,5.57
2023-05-03T01:42:10.494Z,6.07
2023-05-03T01:44:38.405Z,9.55
2023-05-03T01:47:04.895Z,6.63
2023-05-03T01:49:31.361Z,7.95
2023-05-03T01:51:57.790Z,6.80
2023-05-03T01:54:24.366Z,6.63
2023-05-03T01:56:50.865Z,6.65
2023-05-03T01:59:17.417Z,7.70
2023-05-03T02:01:43.967Z,8.07
2023-05-03T02:04:11.160Z,7.15
2023-05-03T02:06:37.677Z,6.95
2023-05-03T02:09:04.221Z,7.70
2023-05-03T02:11:30.855Z,8.10
2023-05-03T02:13:57.397Z,9.60
2023-05-03T02:16:23.944Z,7.50
2023-05-03T02:18:51.894Z,6.20
2023-05-03T02:21:18.305Z,7.35
2023-05-03T02:23:44.750Z,6.38
2023-05-03T02:26:11.211Z,6.95
2023-05-03T02:28:37.661Z,8.80
2023-05-03T02:31:06.302Z,7.45
2023-05-03T02:33:32.924Z,7.90
2023-05-03T02:35:59.455Z,8.38
2023-05-03T02:38:25.928Z,6.28
2023-05-03T02:40:52.395Z,9.40
2023-05-03T02:43:18.789Z,7.70
2023-05-03T02:45:45.245Z,6.20
2023-05-03T02:48:12.486Z,8.57
2023-05-03T02:50:39.857Z,7.28
2023-05-03T02:53:06.999Z,8.30
2023-05-03T02:55:33.557Z,6.68
2023-05-03T02:58:00.046Z,8.95
2023-05-03T03:00:26.585Z,6.43
2023-05-03T03:02:53.105Z,8.00
2023-05-03T03:05:19.730Z,7.55
2023-05-03T03:07:46.196Z,7.85
2023-05-03T03:10:12.751Z,6.72
2023-05-03T03:12:39.312Z,8.30
2023-05-03T03:15:07.073Z,7.32
2023-05-03T03:17:33.577Z,6.55
2023-05-03T03:20:02.112Z,8.63
2023-05-03T03:22:28.911Z,6.60
2023-05-03T03:24:55.367Z,9.85
2023-05-03T03:27:23.176Z,9.40
2023-05-03T03:29:50.001Z,7.00
2023-05-03T03:32:16.470Z,5.75
2023-05-03T03:34:42.937Z,5.43
2023-05-03T03:37:09.486Z,6.60
2023-05-03T03:39:36.738Z,6.32
2023-05-03T03:42:03.532Z,7.70
2023-05-03T03:44:30.063Z,8.52
2023-05-03T03:46:56.588Z,7.22
2023-05-03T03:49:23.136Z,7.60
2023-05-03T03:51:49.557Z,7.15
2023-05-03T03:54:16.224Z,5.53
2023-05-03T03:56:42.820Z,7.43
2023-05-03T03:59:09.338Z,7.13
2023-05-03T04:01:35.849Z,7.38
2023-05-03T04:04:02.434Z,7.88
2023-05-03T04:06:29.122Z,6.85
2023-05-03T04:08:55.661Z,9.27
2023-05-03T04:11:22.123Z,10.13
2023-05-03T04:13:48.572Z,6.72
2023-05-03T04:16:15.481Z,9.88
2023-05-03T04:18:42.741Z,7.07
2023-05-03T04:21:09.241Z,7.32
2023-05-03T04:23:35.742Z,7.05
2023-05-03T04:26:03.320Z,7.28
2023-05-03T04:28:31.494Z,6.50
2023-05-03T04:30:58.683Z,8.90
2023-05-03T04:33:25.915Z,7.45
2023-05-03T04:35:52.710Z,10.18
2023-05-03T04:38:19.994Z,6.63
2023-05-03T04:40:46.643Z,7.35
2023-05-03T04:43:13.236Z,8.55
2023-05-03T04:45:40.925Z,8.02
2023-05-03T04:48:08.125Z,8.93
2023-05-03T04:50:34.744Z,6.80
2023-05-03T04:53:01.724Z,7.45
2023-05-03T04:55:28.241Z,8.20
2023-05-03T04:57:55.712Z,7.90
2023-05-03T05:00:22.600Z,6.68
2023-05-03T05:02:49.291Z,8.43
2023-05-03T05:05:17.400Z,7.65
2023-05-03T05:10:10.868Z,6.88
2023-05-03T05:12:37.364Z,7.32
2023-05-03T05:15:04.431Z,7.38
2023-05-03T05:17:31.047Z,5.45
2023-05-03T05:19:57.647Z,6.35
2023-05-03T05:22:24.147Z,7.75
2023-05-03T05:24:50.722Z,9.50
2023-05-03T05:27:17.218Z,8.23
2023-05-03T05:29:43.669Z,9.60
2023-05-03T05:32:10.121Z,7.43
2023-05-03T05:34:45.292Z,6.55
2023-05-03T05:37:12.381Z,7.57
2023-05-03T05:39:38.841Z,8.32
2023-05-03T05:42:05.539Z,6.53
2023-05-03T05:44:32.080Z,5.95
2023-05-03T05:46:58.550Z,8.23
2023-05-03T05:49:25.124Z,6.43
2023-05-03T05:51:51.590Z,6.80
2023-05-03T05:54:18.070Z,8.60
2023-05-03T05:56:44.832Z,8.95
2023-05-03T05:59:11.336Z,8.35
2023-05-03T06:01:41.733Z,8.25
2023-05-03T06:04:08.583Z,8.52
2023-05-03T06:06:35.158Z,8.40
2023-05-03T06:09:09.800Z,9.20
2023-05-03T06:11:43.649Z,7.57
2023-05-03T06:14:10.146Z,8.32
2023-05-03T06:16:37.397Z,6.35
2023-05-03T06:19:05.082Z,7.57
2023-05-03T06:21:31.683Z,6.90
2023-05-03T06:23:58.328Z,8.65
2023-05-03T06:26:24.831Z,6.57
2023-05-03T06:28:52.409Z,9.00
2023-05-03T06:31:18.988Z,6.82
2023-05-03T06:33:46.123Z,6.65
2023-05-03T06:36:13.008Z,5.82
2023-05-03T06:38:39.816Z,9.05
2023-05-03T06:41:06.272Z,8.20
2023-05-03T06:43:32.733Z,7.68
2023-05-03T06:45:59.297Z,9.15
2023-05-03T06:48:26.061Z,7.70
2023-05-03T06:50:52.677Z,8.85
2023-05-03T06:53:19.172Z,7.78
2023-05-03T06:55:46.274Z,8.57
2023-05-03T06:58:12.788Z,6.88
2023-05-03T07:00:39.330Z,10.18
2023-05-03T07:03:06.680Z,7.93
2023-05-03T07:05:34.017Z,8.43
2023-05-03T07:08:00.562Z,6.80
2023-05-03T07:10:31.257Z,7.80
2023-05-03T07:12:58.383Z,6.07
2023-05-03T07:15:24.859Z,7.63
2023-05-03T07:17:51.316Z,8.52
2023-05-03T07:20:17.810Z,5.75
2023-05-03T07:22:45.152Z,6.20
2023-05-03T07:25:12.346Z,6.05
2023-05-03T07:27:39.003Z,8.13
2023-05-03T07:30:06.642Z,5.90
2023-05-03T07:32:33.447Z,7.75
2023-05-03T07:35:00.091Z,5.60
2023-05-03T07:37:27.794Z,8.68
2023-05-03T07:39:54.262Z,9.68
2023-05-03T07:42:21.053Z,6.40
2023-05-03T07:44:47.529Z,8.43
2023-05-03T07:47:13.932Z,6.53
2023-05-03T07:49:40.535Z,6.93
2023-05-03T07:52:06.981Z,6.53
2023-05-03T07:54:33.445Z,5.00
2023-05-03T07:57:00.663Z,6.07
2023-05-03T07:59:27.366Z,6.10
2023-05-03T08:01:53.977Z,6.18
2023-05-03T08:04:20.981Z,7.75
2023-05-03T08:06:47.814Z,6.88
2023-05-03T08:09:15.733Z,7.47
2023-05-03T08:11:44.103Z,6.55
2023-05-03T08:14:11.356Z,6.93
2023-05-03T08:16:37.981Z,6.10
2023-05-03T08:19:04.952Z,8.45
2023-05-03T08:21:33.258Z,6.40
2023-05-03T08:26:28.603Z,6.68
2023-05-03T08:28:55.434Z,11.43
2023-05-03T08:31:21.897Z,7.72
2023-05-03T08:33:48.341Z,5.82
2023-05-03T08:36:17.231Z,4.63
2023-05-03T08:38:43.939Z,5.97
2023-05-03T08:41:23.661Z,5.15
2023-05-03T08:43:53.868Z,6.90
2023-05-03T08:46:21.301Z,6.07
2023-05-03T08:48:49.572Z,5.50
2023-05-03T08:51:19.728Z,5.65
2023-05-03T08:53:46.499Z,6.45
2023-05-03T08:56:30.582Z,7.20
2023-05-03T08:58:58.140Z,6.53
2023-05-03T09:01:24.703Z,5.57
2023-05-03T09:03:52.055Z,5.32
2023-05-03T09:06:20.496Z,6.93
2023-05-03T09:11:24.568Z,7.00
2023-05-03T09:13:52.974Z,6.40
2023-05-03T09:16:27.621Z,6.38
2023-05-03T09:19:02.068Z,6.47
2023-05-03T09:21:29.659Z,6.72
2023-05-03T09:23:56.242Z,6.88
2023-05-03T09:26:31.172Z,6.47
2023-05-03T09:28:59.045Z,6.57
2023-05-03T09:31:26.370Z,6.53
2023-05-03T09:33:53.473Z,8.50
2023-05-03T09:36:20.055Z,5.80
2023-05-03T09:38:46.572Z,8.02
2023-05-03T09:41:13.162Z,8.48
2023-05-03T09:43:50.960Z,6.55
2023-05-03T09:46:17.744Z,6.95
2023-05-03T09:48:46.100Z,7.15
2023-05-03T09:51:13.017Z,6.28
2023-05-03T09:53:41.718Z,5.72
2023-05-03T09:56:12.746Z,6.40
2023-05-03T09:58:40.964Z,5.75
2023-05-03T10:01:08.707Z,7.55
2023-05-03T10:03:43.956Z,7.75
2023-05-03T10:06:25.237Z,5.55
2023-05-03T10:09:22.049Z,6.15
2023-05-03T10:11:52.645Z,8.82
2023-05-03T10:14:20.892Z,6.05
2023-05-03T10:17:18.551Z,6.30
2023-05-03T10:19:55.064Z,6.30
2023-05-03T10:22:21.729Z,6.75
2023-05-03T10:24:57.190Z,7.13
2023-05-03T10:27:24.108Z,7.10
2023-05-03T10:29:51.405Z,7.00
2023-05-03T10:32:32.367Z,7.60
2023-05-03T10:35:05.864Z,6.90
2023-05-03T10:37:34.683Z,6.47
2023-05-03T10:40:13.839Z,6.22
2023-05-03T10:42:45.135Z,6.90
2023-05-03T10:45:29.514Z,7.07
2023-05-03T10:48:20.274Z,6.57
2023-05-03T10:50:47.701Z,7.10
2023-05-03T10:53:36.028Z,6.72
2023-05-03T10:56:07.994Z,6.97
2023-05-03T10:58:41.917Z,6.13
2023-05-03T11:01:10.978Z,5.80
2023-05-03T11:04:03.880Z,6.88
2023-05-03T11:06:35.850Z,9.73
2023-05-03T11:09:06.046Z,6.70
2023-05-03T11:11:33.231Z,6.75
2023-05-03T11:13:59.831Z,7.57
2023-05-03T11:16:27.224Z,6.05
2023-05-03T11:18:54.111Z,8.02
2023-05-03T11:21:21.211Z,7.45
2023-05-03T11:23:47.744Z,6.85
2023-05-03T11:26:14.381Z,8.02
2023-05-03T11:28:42.020Z,6.53
2023-05-03T11:31:09.763Z,10.45
2023-05-03T11:33:37.939Z,8.95
2023-05-03T11:38:33.837Z,5.28
2023-05-03T11:41:01.598Z,5.47
2023-05-03T11:43:29.052Z,7.07
2023-05-03T11:45:59.223Z,8.50
2023-05-03T11:48:32.115Z,8.27
2023-05-03T11:50:58.820Z,7.25
2023-05-03T11:53:26.451Z,7.50
2023-05-03T11:55:54.353Z,6.78
2023-05-03T11:58:26.516Z,10.07
2023-05-03T12:00:57.489Z,6.75
2023-05-03T12:03:29.098Z,7.65
2023-05-03T12:05:59.605Z,5.78
2023-05-03T12:08:34.274Z,6.90
2023-05-03T12:11:03.843Z,7.30
2023-05-03T12:13:40.194Z,7.60
2023-05-03T12:18:50.456Z,7.40
2023-05-03T12:23:55.486Z,7.50
2023-05-03T12:26:23.243Z,8.95
2023-05-03T12:28:49.948Z,8.13
2023-05-03T12:31:18.318Z,7.38
2023-05-03T12:34:02.291Z,9.20
2023-05-03T12:36:35.165Z,6.45
2023-05-03T12:39:07.929Z,7.82
2023-05-03T12:42:05.449Z,8.88
2023-05-03T12:46:52.922Z,8.02
2023-05-03T12:49:22.989Z,7.95
2023-05-03T12:52:02.825Z,8.13
2023-05-03T12:57:15.630Z,8.48
2023-05-03T12:59:43.744Z,8.27
2023-05-03T13:04:57.655Z,8.63
2023-05-03T13:07:31.819Z,8.77
2023-05-03T13:12:30.815Z,7.82
2023-05-03T13:17:24.737Z,7.57
2023-05-03T13:19:52.234Z,9.05
2023-05-03T13:24:47.466Z,7.57
2023-05-03T13:29:40.853Z,8.43
2023-05-03T13:32:08.573Z,8.45
2023-05-03T13:34:36.191Z,8.80
2023-05-03T13:37:04.419Z,7.45
2023-05-03T13:39:32.616Z,10.20
2023-05-03T13:41:59.248Z,9.60
2023-05-03T13:44:26.214Z,8.18
2023-05-03T13:46:52.949Z,7.22
2023-05-03T13:49:19.627Z,8.15
2023-05-03T13:51:46.195Z,8.10
2023-05-03T13:54:12.681Z,8.40
2023-05-03T13:56:40.368Z,7.28
2023-05-03T13:59:08.951Z,7.60
2023-05-03T14:01:36.157Z,8.60
2023-05-03T14:04:03.914Z,8.45
2023-05-03T14:06:33.078Z,7.90
2023-05-03T14:09:01.494Z,8.30
2023-05-03T14:11:28.614Z,7.88
2023-05-03T14:13:57.510Z,8.43
2023-05-03T14:18:56.064Z,8.73
2023-05-03T14:21:22.947Z,6.50
2023-05-03T14:23:51.230Z,8.63
2023-05-03T14:26:18.291Z,7.97
2023-05-03T14:28:44.767Z,8.45
2023-05-03T14:31:11.514Z,6.78
2023-05-03T14:33:38.016Z,7.30
2023-05-03T14:36:07.983Z,8.43
2023-05-03T14:38:35.820Z,7.57
2023-05-03T14:41:02.284Z,6.88
2023-05-03T14:43:29.023Z,7.25
2023-05-03T14:45:55.493Z,8.48
2023-05-03T14:48:22.033Z,7.10
2023-05-03T14:50:52.214Z,6.18
2023-05-03T14:53:18.912Z,8.65
2023-05-03T14:55:46.484Z,6.05
2023-05-03T14:58:13.469Z,6.60
2023-05-03T15:00:41.352Z,10.02
2023-05-03T15:03:11.632Z,7.35
2023-05-03T15:05:46.537Z,7.75
2023-05-03T15:08:17.635Z,9.27
2023-05-03T15:10:45.027Z,7.38
2023-05-03T15:13:12.541Z,6.88
2023-05-03T15:15:39.674Z,7.43
2023-05-03T15:18:06.894Z,8.63
2023-05-03T15:20:33.512Z,8.50
2023-05-03T15:23:00.118Z,11.00
2023-05-03T15:25:27.075Z,8.82
2023-05-03T15:27:53.624Z,7.30
2023-05-03T15:30:20.128Z,7.18
2023-05-03T15:32:46.658Z,9.27
2023-05-03T15:35:13.221Z,7.43
2023-05-03T15:37:39.868Z,11.65
2023-05-03T15:40:09.400Z,6.95
2023-05-03T15:42:36.902Z,6.20
2023-05-03T15:45:05.892Z,6.57
2023-05-03T15:47:33.473Z,8.13
2023-05-03T15:50:00.247Z,7.60
2023-05-03T15:52:26.784Z,7.07
2023-05-03T15:54:54.866Z,8.02
2023-05-03T15:59:48.505Z,7.72
2023-05-03T16:02:15.195Z,7.57
2023-05-03T16:04:41.770Z,8.70
2023-05-03T16:07:08.686Z,8.05
2023-05-03T16:09:35.224Z,8.35
2023-05-03T16:12:02.448Z,9.65
2023-05-03T16:14:28.991Z,8.88
2023-05-03T16:16:55.507Z,8.23
2023-05-03T16:19:22.413Z,8.20
2023-05-03T16:21:48.900Z,9.10
2023-05-03T16:24:15.501Z,8.80
2023-05-03T16:26:42.161Z,8.23
2023-05-03T16:29:10.098Z,9.65
2023-05-03T16:31:36.731Z,8.10
2023-05-03T16:34:03.480Z,8.30
2023-05-03T16:36:30.339Z,8.35
2023-05-03T16:38:56.943Z,8.65
2023-05-03T16:41:24.227Z,7.57
2023-05-03T16:43:50.831Z,9.20
2023-05-03T16:46:17.470Z,8.38
2023-05-03T16:48:44.189Z,8.82
2023-05-03T16:51:10.640Z,8.02
2023-05-03T16:53:37.160Z,8.07
2023-05-03T16:56:03.688Z,8.95
2023-05-03T16:58:30.116Z,7.22
2023-05-03T17:00:56.621Z,8.60
2023-05-03T17:03:23.411Z,8.90
2023-05-03T17:05:50.065Z,9.18
2023-05-03T17:08:16.582Z,9.70
2023-05-03T17:10:44.595Z,8.52
2023-05-03T17:13:11.719Z,8.20
2023-05-03T17:15:38.491Z,8.63
2023-05-03T17:18:05.327Z,9.30
2023-05-03T17:20:33.012Z,10.63
2023-05-03T17:22:59.477Z,8.15
2023-05-03T17:25:26.007Z,9.40
2023-05-03T17:27:53.035Z,8.55
2023-05-03T17:30:21.122Z,9.45
2023-05-03T17:32:48.620Z,9.45
2023-05-03T17:35:15.278Z,9.23
2023-05-03T17:37:42.028Z,9.20
2023-05-03T17:40:08.947Z,7.45
2023-05-03T17:42:35.459Z,9.63
2023-05-03T17:45:04.071Z,7.90
2023-05-03T17:47:31.594Z,9.35
2023-05-03T17:49:58.205Z,10.38
2023-05-03T17:52:24.655Z,8.43
2023-05-03T17:54:52.402Z,9.10
2023-05-03T17:57:21.791Z,8.48
2023-05-03T17:59:48.647Z,7.47
2023-05-03T18:02:15.335Z,8.50
2023-05-03T18:04:41.913Z,9.95
2023-05-03T18:07:08.421Z,10.82
2023-05-03T18:09:35.039Z,11.93
2023-05-03T18:12:01.975Z,9.38
2023-05-03T18:14:28.591Z,9.20
2023-05-03T18:16:55.395Z,11.38
2023-05-03T18:19:21.996Z,8.75
2023-05-03T18:21:48.528Z,8.25
2023-05-03T18:24:15.938Z,8.70
2023-05-03T18:26:42.594Z,9.40
2023-05-03T18:29:09.137Z,10.60
2023-05-03T18:31:36.591Z,9.27
2023-05-03T18:34:03.274Z,9.63
2023-05-03T18:36:29.819Z,11.50
2023-05-03T18:38:56.293Z,10.02
2023-05-03T18:41:23.121Z,9.65
2023-05-03T18:43:50.569Z,9.73
2023-05-03T18:46:18.825Z,7.60
2023-05-03T18:48:46.887Z,9.43
2023-05-03T18:51:14.323Z,10.00
2023-05-03T18:53:41.113Z,8.98
2023-05-03T18:56:07.783Z,10.95
2023-05-03T18:58:34.420Z,10.52
2023-05-03T19:01:01.176Z,9.93
2023-05-03T19:03:31.924Z,8.48
2023-05-03T19:06:07.376Z,11.02
2023-05-03T19:08:34.498Z,11.57
2023-05-03T19:11:12.807Z,10.05
2023-05-03T19:13:39.883Z,10.32
2023-05-03T19:16:06.661Z,10.35
2023-05-03T19:18:33.273Z,9.88
2023-05-03T19:21:00.135Z,8.02
2023-05-03T19:23:27.126Z,11.73
2023-05-03T19:25:53.742Z,8.45
2023-05-03T19:28:20.590Z,7.93
2023-05-03T19:30:51.435Z,11.45
2023-05-03T19:33:19.158Z,9.25
2023-05-03T19:35:46.030Z,9.48
2023-05-03T19:38:13.547Z,12.63
2023-05-03T19:40:40.288Z,8.73
2023-05-03T19:43:07.583Z,10.50
2023-05-03T19:45:34.257Z,10.18
2023-05-03T19:48:01.438Z,9.70
2023-05-03T19:50:28.000Z,11.30
2023-05-03T19:52:54.658Z,9.00
2023-05-03T19:55:21.247Z,11.25
2023-05-03T19:57:47.796Z,10.93
2023-05-03T20:00:15.738Z,9.18
2023-05-03T20:02:42.441Z,9.38
2023-05-03T20:05:09.206Z,8.40
2023-05-03T20:07:35.696Z,10.05
2023-05-03T20:10:02.509Z,10.52
2023-05-03T20:12:29.472Z,9.82
2023-05-03T20:14:56.117Z,12.07
2023-05-03T20:17:22.712Z,11.63
2023-05-03T20:19:49.959Z,10.68
2023-05-03T20:22:17.166Z,10.88
2023-05-03T20:24:43.689Z,11.88
2023-05-03T20:27:10.315Z,12.23
2023-05-03T20:29:37.265Z,8.82
2023-05-03T20:32:03.855Z,10.07
2023-05-03T20:34:30.533Z,10.00
2023-05-03T20:36:57.188Z,9.85
2023-05-03T20:39:24.052Z,9.18
2023-05-03T20:41:50.549Z,9.57
2023-05-03T20:44:17.026Z,9.73
2023-05-03T20:46:43.437Z,11.80
2023-05-03T20:49:10.462Z,11.65
2023-05-03T20:51:37.051Z,10.15
2023-05-03T20:54:03.688Z,10.80
2023-05-03T20:56:32.239Z,10.35
2023-05-03T20:58:58.955Z,10.50
2023-05-03T21:01:25.466Z,12.73
2023-05-03T21:03:51.967Z,11.63
2023-05-03T21:06:18.486Z,10.65
2023-05-03T21:08:44.884Z,11.20
2023-05-03T21:11:11.523Z,11.77
2023-05-03T21:13:38.525Z,10.32
2023-05-03T21:16:07.962Z,12.10
2023-05-03T21:18:34.580Z,12.75
2023-05-03T21:21:01.048Z,12.55
2023-05-03T21:23:27.904Z,9.48
2023-05-03T21:25:56.152Z,10.65
2023-05-03T21:28:23.044Z,11.32
2023-05-03T21:30:49.754Z,12.00
2023-05-03T21:33:16.569Z,13.48
2023-05-03T21:35:43.564Z,15.35
2023-05-03T21:38:10.036Z,12.25
2023-05-03T21:40:36.982Z,12.23
2023-05-03T21:43:04.428Z,9.45
2023-05-03T21:45:31.072Z,10.43
2023-05-03T21:47:57.564Z,14.60
2023-05-03T21:50:24.131Z,11.40
2023-05-03T21:52:50.790Z,12.20
2023-05-03T21:55:17.636Z,9.80
2023-05-03T21:57:44.115Z,11.13
2023-05-03T22:00:17.670Z,11.35
2023-05-03T22:02:44.609Z,9.80
2023-05-03T22:05:11.286Z,10.32
2023-05-03T22:07:38.666Z,10.85
2023-05-03T22:10:06.020Z,10.60
2023-05-03T22:12:33.290Z,11.90
2023-05-03T22:15:00.026Z,15.63
2023-05-03T22:17:27.168Z,12.50
2023-05-03T22:19:54.202Z,10.55
2023-05-03T22:22:21.083Z,10.98
2023-05-03T22:24:47.639Z,12.13
2023-05-03T22:27:14.162Z,12.45
2023-05-03T22:29:40.619Z,15.40
2023-05-03T22:32:07.229Z,10.80
2023-05-03T22:34:33.814Z,12.13
2023-05-03T22:37:00.346Z,13.98
2023-05-03T22:39:26.818Z,12.93
2023-05-03T22:41:53.263Z,13.77
2023-05-03T22:44:19.858Z,14.63
2023-05-03T22:46:46.360Z,12.00
2023-05-03T22:49:12.850Z,12.55
2023-05-03T22:51:39.327Z,14.15
2023-05-03T22:54:05.827Z,13.13
2023-05-03T22:56:32.293Z,12.50
2023-05-03T22:58:58.742Z,15.18
2023-05-03T23:01:26.784Z,12.52
2023-05-03T23:03:53.732Z,15.80
2023-05-03T23:06:20.433Z,14.80
2023-05-03T23:08:47.026Z,13.02
2023-05-03T23:11:13.603Z,16.15
2023-05-03T23:13:40.191Z,14.85
2023-05-03T23:16:07.961Z,14.60
2023-05-03T23:18:34.616Z,13.38
2023-05-03T23:21:01.367Z,11.95
2023-05-03T23:23:27.862Z,13.88
2023-05-03T23:25:54.323Z,16.13
2023-05-03T23:28:21.417Z,15.07
2023-05-03T23:30:48.616Z,16.50
2023-05-03T23:33:15.759Z,13.02
2023-05-03T23:35:42.809Z,13.15
2023-05-03T23:38:09.393Z,14.10
2023-05-03T23:40:36.452Z,14.82
2023-05-03T23:43:03.073Z,14.07
2023-05-03T23:45:29.543Z,13.07
2023-05-03T23:47:56.070Z,15.95
2023-05-03T23:50:22.539Z,15.48
2023-05-03T23:52:48.974Z,13.98
2023-05-03T23:55:15.426Z,13.30
2023-05-03T23:57:41.923Z,16.75
